Time;durP1;ratioP1;P1;durP2;ratioP2;P2;SDS_P1;SDS_P2;PMS_P1;PMS_P2;Temp;Humidity;BMP_temperature;BMP_pressure;BME280_temperature;BME280_humidity;BME280_pressure;Samples;Min_cycle;Max_cycle;Signal;HPM_P1;HPM_P2
2021/01/25 00:01:47;;;;;;;3.47;1.47;;;;;;;8.67;69.81;99248.42;1749566;80;21192;-57
2021/01/25 00:04:15;;;;;;;4.25;2.15;;;;;;;8.60;69.75;99257.00;1716472;80;21215;-55
2021/01/25 00:06:44;;;;;;;5.65;1.82;;;;;;;8.52;69.80;99255.05;1770937;80;21155;-55
2021/01/25 00:09:11;;;;;;;3.37;1.15;;;;;;;8.49;69.69;99252.23;1713822;81;21129;-55
2021/01/25 00:11:39;;;;;;;3.83;1.50;;;;;;;8.52;69.62;99253.74;1740437;80;21212;-55
2021/01/25 00:14:07;;;;;;;3.20;1.27;;;;;;;8.53;69.59;99245.74;1717845;80;21212;-56
2021/01/25 00:16:35;;;;;;;4.60;1.57;;;;;;;8.55;69.70;99241.67;1748507;80;21206;-56
2021/01/25 00:19:03;;;;;;;4.65;1.50;;;;;;;8.55;69.79;99243.80;1742117;81;21655;-56
2021/01/25 00:21:32;;;;;;;4.60;1.60;;;;;;;8.53;69.66;99244.92;1745169;81;21188;-56
2021/01/25 00:23:59;;;;;;;4.60;2.08;;;;;;;8.46;69.67;99239.89;1738054;81;21342;-56
2021/01/25 00:26:26;;;;;;;3.27;1.40;;;;;;;8.38;69.86;99245.28;1735019;80;21172;-56
2021/01/25 00:28:54;;;;;;;3.27;1.47;;;;;;;8.34;70.03;99253.09;1720000;81;21232;-56
2021/01/25 00:31:21;;;;;;;3.70;1.65;;;;;;;8.32;69.94;99258.10;1740036;81;21149;-56
2021/01/25 00:33:48;;;;;;;3.58;1.30;;;;;;;8.31;70.00;99252.53;1709789;82;21646;-56
2021/01/25 00:36:16;;;;;;;3.20;1.12;;;;;;;8.35;69.99;99252.13;1738205;82;21138;-56
2021/01/25 00:38:44;;;;;;;2.77;1.15;;;;;;;8.36;69.97;99252.46;1798994;79;21180;-56
2021/01/25 00:41:11;;;;;;;3.92;1.40;;;;;;;8.35;70.00;99252.59;1774503;79;21208;-56
2021/01/25 00:43:38;;;;;;;2.60;1.05;;;;;;;8.33;69.98;99243.55;1770020;79;21119;-56
2021/01/25 00:46:06;;;;;;;6.70;2.27;;;;;;;8.29;69.88;99242.67;1796387;79;21168;-56
2021/01/25 00:48:33;;;;;;;3.45;1.52;;;;;;;8.26;69.94;99237.20;1798013;79;21833;-56
2021/01/25 00:51:03;;;;;;;4.03;1.42;;;;;;;8.26;69.89;99232.45;1790760;79;21149;-56
2021/01/25 00:53:30;;;;;;;3.20;1.45;;;;;;;8.22;69.92;99226.66;1796687;79;21197;-56
2021/01/25 00:55:58;;;;;;;4.17;1.60;;;;;;;8.18;69.83;99224.77;1731423;80;21190;-56
2021/01/25 00:58:26;;;;;;;3.65;1.45;;;;;;;8.13;69.95;99220.42;1764402;79;21220;-56
2021/01/25 01:00:53;;;;;;;3.22;1.22;;;;;;;8.16;70.03;99220.16;1792826;79;21187;-56
2021/01/25 01:03:23;;;;;;;3.30;1.50;;;;;;;8.24;69.87;99218.18;1799780;79;21110;-56
2021/01/25 01:05:51;;;;;;;4.20;1.72;;;;;;;8.30;69.83;99214.17;1790943;79;21282;-56
2021/01/25 01:08:18;;;;;;;3.40;1.57;;;;;;;8.33;69.88;99209.97;1804736;79;21133;-56
2021/01/25 01:10:46;;;;;;;3.47;1.30;;;;;;;8.30;69.81;99212.37;1741738;82;21660;-56
2021/01/25 01:13:13;;;;;;;4.15;1.70;;;;;;;8.25;69.94;99210.64;1773868;79;21206;-56
2021/01/25 01:15:41;;;;;;;4.75;2.00;;;;;;;8.22;69.89;99213.56;1725608;80;21157;-56
2021/01/25 01:18:09;;;;;;;4.85;1.70;;;;;;;8.15;70.09;99217.67;1793414;79;21730;-56
2021/01/25 01:20:37;;;;;;;4.97;1.77;;;;;;;8.10;70.24;99219.88;1801252;79;21133;-56
2021/01/25 01:23:05;;;;;;;2.70;1.02;;;;;;;8.07;70.41;99213.59;1801731;78;21160;-56
2021/01/25 01:25:32;;;;;;;3.55;1.40;;;;;;;8.10;70.31;99213.32;1739304;82;21182;-55
2021/01/25 01:28:00;;;;;;;5.15;1.75;;;;;;;8.18;70.31;99218.22;1784307;79;21702;-56
2021/01/25 01:30:27;;;;;;;3.72;1.42;;;;;;;8.25;70.47;99217.20;1801250;78;21212;-56
2021/01/25 01:32:55;;;;;;;3.40;1.52;;;;;;;8.32;70.26;99213.55;1790553;79;21180;-56
2021/01/25 01:35:22;;;;;;;3.98;1.30;;;;;;;8.31;70.20;99217.15;1747533;80;21137;-56
2021/01/25 01:37:51;;;;;;;3.37;1.57;;;;;;;8.33;70.27;99222.59;1687880;83;21605;-56
2021/01/25 01:40:20;;;;;;;4.40;1.82;;;;;;;8.28;70.06;99217.42;1735400;79;21631;-56
2021/01/25 01:42:47;;;;;;;6.25;2.87;;;;;;;8.23;70.14;99213.89;1805467;79;21199;-56
2021/01/25 01:45:15;;;;;;;5.60;2.72;;;;;;;8.19;70.48;99216.45;1761804;79;21211;-56
2021/01/25 01:47:42;;;;;;;9.30;3.72;;;;;;;8.19;70.65;99216.45;1770550;80;21616;-56
2021/01/25 01:50:12;;;;;;;7.87;3.33;;;;;;;8.21;70.49;99214.52;1712788;80;21149;-56
2021/01/25 01:52:39;;;;;;;6.92;3.30;;;;;;;8.29;70.76;99219.09;1758435;80;21586;-56
2021/01/25 01:55:09;;;;;;;5.33;2.33;;;;;;;8.38;70.85;99216.45;1723647;80;21386;-56
2021/01/25 01:57:36;;;;;;;6.87;3.12;;;;;;;8.42;70.56;99214.38;1725558;80;21208;-56
2021/01/25 02:00:07;;;;;;;6.10;3.17;;;;;;;8.42;70.58;99212.25;1801004;79;21191;-56
2021/01/25 02:02:41;;;;;;;6.42;4.10;;;;;;;8.42;70.77;99214.38;1797485;79;21639;-56
2021/01/25 02:05:10;;;;;;;7.30;3.62;;;;;;;8.45;71.14;99214.14;1737032;82;21275;-56
2021/01/25 02:07:38;;;;;;;6.53;3.20;;;;;;;8.47;71.35;99214.85;1804005;79;21154;-56
2021/01/25 02:10:09;;;;;;;6.15;3.33;;;;;;;8.46;71.24;99207.94;1807555;78;21211;-56
2021/01/25 02:12:37;;;;;;;7.67;3.72;;;;;;;8.47;71.14;99216.16;1806444;79;21169;-55
2021/01/25 02:15:06;;;;;;;7.62;2.75;;;;;;;8.55;71.22;99218.89;1735603;80;21232;-56
2021/01/25 02:17:33;;;;;;;7.15;3.52;;;;;;;8.61;71.32;99220.61;1793717;79;21208;-55
2021/01/25 02:20:08;;;;;;;7.62;3.40;;;;;;;8.63;71.38;99224.77;1750402;80;21385;-56
2021/01/25 02:22:58;;;;;;;6.78;3.75;;;;;;;8.63;71.46;99226.08;1697543;82;21176;-56
2021/01/25 02:26:05;;;;;;;7.87;3.70;;;;;;;8.63;71.65;99235.75;1714452;80;21168;-56
2021/01/25 02:28:32;;;;;;;11.73;4.20;;;;;;;8.62;71.47;99234.91;1797551;79;21156;-56
2021/01/25 02:31:02;;;;;;;10.50;5.50;;;;;;;8.52;71.78;99229.69;1812053;79;21117;-55
2021/01/25 02:33:31;;;;;;;8.08;4.75;;;;;;;8.54;71.76;99241.34;1805236;79;21172;-56
2021/01/25 02:35:59;;;;;;;8.20;4.42;;;;;;;8.58;71.68;99245.34;1702000;81;21141;-57
2021/01/25 02:38:27;;;;;;;6.72;3.70;;;;;;;8.62;71.74;99241.45;1787621;79;21149;-56
2021/01/25 02:40:55;;;;;;;6.58;3.42;;;;;;;8.63;71.67;99241.81;1730104;80;21134;-56
2021/01/25 02:43:22;;;;;;;8.75;4.40;;;;;;;8.63;71.96;99242.31;1791156;79;21089;-56
2021/01/25 02:45:50;;;;;;;14.65;4.85;;;;;;;8.60;71.91;99240.77;1710021;80;22168;-56
2021/01/25 02:48:18;;;;;;;7.37;3.50;;;;;;;8.54;72.01;99245.28;1798654;79;21144;-56
2021/01/25 02:50:50;;;;;;;8.00;4.35;;;;;;;8.46;72.18;99237.27;1779862;79;21173;-56
2021/01/25 02:53:18;;;;;;;10.00;4.15;;;;;;;8.35;72.46;99241.65;1791565;79;21136;-56
2021/01/25 02:55:47;;;;;;;7.83;3.60;;;;;;;8.32;72.59;99244.53;1688146;82;21523;-56
2021/01/25 02:58:14;;;;;;;7.10;3.55;;;;;;;8.36;72.60;99243.78;1773278;79;21158;-55
2021/01/25 03:00:41;;;;;;;9.63;4.00;;;;;;;8.40;72.55;99243.84;1795912;79;21125;-55
2021/01/25 03:03:09;;;;;;;6.55;3.30;;;;;;;8.43;72.62;99249.33;1739547;81;21185;-56
2021/01/25 03:05:36;;;;;;;7.03;3.77;;;;;;;8.40;72.71;99236.47;1778904;79;21188;-56
2021/01/25 03:08:05;;;;;;;7.87;3.90;;;;;;;8.42;72.67;99244.52;1743491;80;21149;-55
2021/01/25 03:10:34;;;;;;;6.92;3.87;;;;;;;8.38;72.72;99237.91;1804667;79;21972;-56
2021/01/25 03:13:03;;;;;;;8.13;3.65;;;;;;;8.34;72.76;99241.29;1784919;79;21153;-56
2021/01/25 03:15:36;;;;;;;6.85;3.20;;;;;;;8.35;72.72;99239.03;1724105;82;21138;-55
2021/01/25 03:18:04;;;;;;;7.35;4.40;;;;;;;8.40;72.51;99234.66;1786103;79;21631;-56
2021/01/25 03:20:32;;;;;;;8.78;5.20;;;;;;;8.48;72.54;99241.88;1784741;79;21133;-56
2021/01/25 03:22:59;;;;;;;9.18;5.17;;;;;;;8.57;72.49;99241.05;1768556;79;21156;-56
2021/01/25 03:25:27;;;;;;;7.70;4.62;;;;;;;8.60;72.24;99226.84;1805387;79;21193;-56
2021/01/25 03:27:54;;;;;;;6.42;4.15;;;;;;;8.58;71.99;99230.09;1778405;79;21137;-56
2021/01/25 03:30:22;;;;;;;9.23;3.75;;;;;;;8.52;71.87;99224.90;1760260;79;21152;-56
2021/01/25 03:32:50;;;;;;;6.15;2.83;;;;;;;8.43;72.02;99221.31;1798909;79;21157;-56
2021/01/25 03:35:17;;;;;;;6.42;3.25;;;;;;;8.36;71.90;99221.01;1744721;82;22491;-56
2021/01/25 03:37:44;;;;;;;6.33;2.33;;;;;;;8.36;71.85;99216.25;1703686;81;21207;-56
2021/01/25 03:40:12;;;;;;;5.12;1.70;;;;;;;8.42;71.50;99212.25;1723264;81;21219;-56
2021/01/25 03:42:39;;;;;;;5.05;2.52;;;;;;;8.43;70.69;99210.83;1746531;82;21557;-56
2021/01/25 03:45:08;;;;;;;6.12;2.87;;;;;;;8.42;70.30;99205.69;1777239;80;21196;-56
2021/01/25 03:47:36;;;;;;;6.85;3.37;;;;;;;8.35;70.20;99203.64;1765380;80;22178;-56
2021/01/25 03:50:05;;;;;;;7.75;3.75;;;;;;;8.32;70.28;99207.00;1775060;80;21181;-56
2021/01/25 03:52:33;;;;;;;5.58;3.15;;;;;;;8.26;70.47;99213.63;1763125;80;21209;-56
2021/01/25 03:55:01;;;;;;;6.65;3.45;;;;;;;8.16;70.79;99208.86;1758167;80;21467;-56
2021/01/25 03:57:28;;;;;;;6.85;3.72;;;;;;;8.02;71.04;99208.78;1721721;82;21139;-56
2021/01/25 03:59:56;;;;;;;6.60;2.72;;;;;;;7.88;71.47;99217.83;1750412;80;21152;-55
2021/01/25 04:02:23;;;;;;;9.10;4.55;;;;;;;7.84;71.92;99211.20;1734298;81;21504;-56
2021/01/25 04:04:50;;;;;;;8.35;3.98;;;;;;;7.91;72.00;99210.19;1764444;79;21140;-56
2021/01/25 04:07:18;;;;;;;8.45;4.87;;;;;;;7.95;72.27;99212.88;1743631;80;21229;-56
2021/01/25 04:09:45;;;;;;;7.08;3.72;;;;;;;7.99;72.22;99207.73;1746329;80;21655;-56
2021/01/25 04:12:13;;;;;;;8.10;3.80;;;;;;;7.99;72.17;99203.31;1744057;81;21202;-58
2021/01/25 04:14:42;;;;;;;7.00;3.80;;;;;;;7.95;72.23;99207.17;1697499;83;21632;-55
2021/01/25 04:17:10;;;;;;;7.70;3.72;;;;;;;7.91;72.31;99212.32;1696649;82;21163;-58
2021/01/25 04:19:38;;;;;;;7.67;3.25;;;;;;;7.88;72.39;99213.08;1743476;80;21188;-56
2021/01/25 04:22:05;;;;;;;9.70;3.87;;;;;;;7.85;72.53;99218.12;1758057;80;21172;-52
2021/01/25 04:24:33;;;;;;;6.72;3.05;;;;;;;7.89;72.53;99218.19;1721310;82;21223;-58
2021/01/25 04:27:01;;;;;;;8.48;4.10;;;;;;;7.99;72.27;99219.52;1753708;80;21140;-57
2021/01/25 04:29:29;;;;;;;7.08;3.35;;;;;;;8.05;72.15;99215.52;1747329;80;21650;-58
2021/01/25 04:31:56;;;;;;;7.30;3.85;;;;;;;8.09;72.15;99219.55;1702013;82;21162;-56
2021/01/25 04:34:24;;;;;;;7.45;3.90;;;;;;;8.09;72.07;99215.13;1770352;80;21176;-56
2021/01/25 04:36:51;;;;;;;7.15;3.60;;;;;;;8.04;72.12;99204.22;1809391;79;21199;-56
2021/01/25 04:39:18;;;;;;;8.50;4.15;;;;;;;8.03;72.18;99208.28;1741380;81;21791;-56
2021/01/25 04:41:47;;;;;;;6.72;3.47;;;;;;;7.99;71.94;99204.62;1807515;79;21181;-56
2021/01/25 04:44:15;;;;;;;7.55;4.00;;;;;;;7.92;71.98;99208.75;1731013;80;21592;-56
2021/01/25 04:46:43;;;;;;;5.92;2.62;;;;;;;7.90;71.99;99205.91;1779648;79;21169;-56
2021/01/25 04:49:13;;;;;;;7.83;3.30;;;;;;;7.94;71.84;99194.21;1761282;80;21163;-56
2021/01/25 04:51:41;;;;;;;8.58;4.10;;;;;;;7.95;71.73;99194.08;1765696;79;21157;-56
2021/01/25 04:54:09;;;;;;;8.18;3.83;;;;;;;7.97;71.72;99190.84;1743252;79;21164;-56
2021/01/25 04:56:37;;;;;;;6.58;3.35;;;;;;;7.93;71.76;99194.67;1798871;79;21196;-56
2021/01/25 04:59:04;;;;;;;7.08;3.27;;;;;;;7.89;71.82;99193.30;1771735;79;21175;-58
2021/01/25 05:01:32;;;;;;;9.23;3.52;;;;;;;7.84;71.77;99199.42;1713540;79;21216;-56
2021/01/25 05:03:59;;;;;;;6.83;3.30;;;;;;;7.76;71.87;99204.50;1695390;80;21644;-56
2021/01/25 05:06:27;;;;;;;8.90;3.70;;;;;;;7.69;71.99;99197.66;1804521;79;21200;-56
2021/01/25 05:08:54;;;;;;;6.97;2.70;;;;;;;7.70;71.99;99195.40;1776057;79;21203;-56
2021/01/25 05:11:22;;;;;;;6.00;2.60;;;;;;;7.79;71.69;99197.20;1794082;79;21547;-56
2021/01/25 05:13:49;;;;;;;7.55;3.50;;;;;;;7.86;71.52;99197.98;1804490;79;22905;-55
2021/01/25 05:16:21;;;;;;;7.20;3.00;;;;;;;7.87;71.46;99191.30;1772466;79;21125;-55
2021/01/25 05:18:56;;;;;;;5.97;2.87;;;;;;;7.84;71.48;99181.09;1763652;80;21120;-56
2021/01/25 05:21:43;;;;;;;10.43;3.58;;;;;;;7.83;71.29;99189.90;1695047;82;21227;-55
2021/01/25 05:24:12;;;;;;;7.03;3.80;;;;;;;7.74;71.21;99185.48;1794707;79;21141;-56
2021/01/25 05:26:57;;;;;;;6.47;3.87;;;;;;;7.65;71.60;99196.28;1764350;79;21192;-55
2021/01/25 05:29:26;;;;;;;7.20;3.52;;;;;;;7.59;71.81;99201.55;1809536;79;21869;-55
2021/01/25 05:31:55;;;;;;;7.12;3.30;;;;;;;7.62;71.79;99206.52;1800093;79;21176;-56
2021/01/25 05:34:23;;;;;;;6.42;3.25;;;;;;;7.72;71.65;99208.36;1808389;79;21223;-56
2021/01/25 05:36:50;;;;;;;9.00;3.60;;;;;;;7.75;71.56;99211.99;1694435;82;21187;-56
2021/01/25 05:39:18;;;;;;;7.05;3.00;;;;;;;7.74;71.39;99218.22;1762991;79;21174;-55
2021/01/25 05:41:56;;;;;;;7.80;3.10;;;;;;;7.70;71.45;99218.11;1801776;79;21195;-56
2021/01/25 05:44:24;;;;;;;6.65;3.30;;;;;;;7.63;71.45;99213.89;1726116;82;21487;-55
2021/01/25 05:47:04;;;;;;;8.75;3.52;;;;;;;7.57;71.43;99209.20;1757954;79;21227;-56
2021/01/25 05:49:32;;;;;;;6.80;3.22;;;;;;;7.45;71.65;99200.62;1751831;79;21205;-53
2021/01/25 05:52:00;;;;;;;7.78;3.12;;;;;;;7.39;71.73;99213.73;1787600;79;21275;-52
2021/01/25 05:54:27;;;;;;;6.35;2.95;;;;;;;7.38;71.76;99215.17;1772035;79;21204;-53
2021/01/25 05:56:55;;;;;;;5.60;2.62;;;;;;;7.43;71.81;99223.45;1799044;79;21627;-55
2021/01/25 05:59:22;;;;;;;6.65;3.00;;;;;;;7.52;71.78;99228.41;1802027;78;21234;-54
2021/01/25 06:01:50;;;;;;;5.83;2.87;;;;;;;7.57;71.57;99227.04;1770203;78;21189;-55
2021/01/25 06:04:20;;;;;;;5.85;3.02;;;;;;;7.57;71.40;99219.19;1765172;79;21258;-55
2021/01/25 06:06:57;;;;;;;6.17;3.30;;;;;;;7.50;71.37;99206.74;1801873;79;21183;-55
2021/01/25 06:09:50;;;;;;;7.60;3.27;;;;;;;7.42;71.59;99208.23;1770954;79;21176;-55
2021/01/25 06:12:38;;;;;;;7.12;2.92;;;;;;;7.38;71.68;99211.23;1798420;79;21164;-55
2021/01/25 06:15:10;;;;;;;7.62;3.08;;;;;;;7.33;71.86;99209.50;1776048;79;21188;-55
2021/01/25 06:17:38;;;;;;;5.65;2.85;;;;;;;7.33;71.67;99192.48;1798901;79;21219;-56
2021/01/25 06:20:08;;;;;;;6.20;2.80;;;;;;;7.43;71.54;99197.28;1767430;79;21196;-57
2021/01/25 06:22:36;;;;;;;6.33;3.22;;;;;;;7.48;71.32;99202.13;1762154;79;21226;-56
2021/01/25 06:25:07;;;;;;;8.93;2.70;;;;;;;7.48;71.33;99196.44;1726318;82;21245;-55
2021/01/25 06:27:37;;;;;;;5.30;2.47;;;;;;;7.50;71.43;99189.27;1771633;79;21619;-55
2021/01/25 06:30:06;;;;;;;9.20;3.10;;;;;;;7.52;71.30;99184.72;1733779;82;21630;-56
2021/01/25 06:32:34;;;;;;;6.90;2.92;;;;;;;7.52;71.23;99180.80;1774300;79;22223;-56
2021/01/25 06:35:05;;;;;;;6.37;2.90;;;;;;;7.51;71.12;99192.22;1769638;80;21639;-56
2021/01/25 06:37:37;;;;;;;5.47;2.15;;;;;;;7.48;71.25;99209.98;1802844;79;21160;-56
2021/01/25 06:40:11;;;;;;;6.55;2.70;;;;;;;7.48;71.25;99209.52;1733674;81;21216;-56
2021/01/25 06:42:40;;;;;;;6.30;2.72;;;;;;;7.50;71.19;99202.81;1763655;79;21162;-56
2021/01/25 06:45:10;;;;;;;5.42;2.60;;;;;;;7.60;71.00;99206.33;1770048;79;21195;-56
2021/01/25 06:47:38;;;;;;;10.08;3.25;;;;;;;7.68;70.89;99212.19;1769928;79;21784;-57
2021/01/25 06:50:07;;;;;;;9.48;3.02;;;;;;;7.73;70.84;99215.23;1751927;79;21573;-56
2021/01/25 06:52:36;;;;;;;5.62;2.45;;;;;;;7.76;71.00;99211.05;1798781;79;21208;-56
2021/01/25 06:55:08;;;;;;;6.22;2.67;;;;;;;7.79;70.79;99199.00;1771947;79;21262;-57
2021/01/25 06:57:37;;;;;;;7.67;3.08;;;;;;;7.74;70.66;99194.64;1771238;79;21143;-57
2021/01/25 07:00:16;;;;;;;5.22;3.02;;;;;;;7.65;70.56;99199.36;1760127;80;21193;-58
2021/01/25 07:03:02;;;;;;;5.85;2.67;;;;;;;7.56;70.84;99198.38;1728510;81;21659;-58
2021/01/25 07:05:32;;;;;;;;;;;;;;;7.54;70.96;99208.16;1795673;78;21106;-58
2021/01/25 07:08:28;;;;;;;10.85;3.90;;;;;;;7.55;70.87;99208.02;1795287;78;21209;-58
2021/01/25 07:10:59;;;;;;;8.88;3.42;;;;;;;7.58;70.77;99218.23;1774234;79;21212;-57
2021/01/25 07:13:33;;;;;;;6.65;3.77;;;;;;;7.67;70.63;99213.17;1796507;79;21216;-56
2021/01/25 07:16:00;;;;;;;11.40;4.03;;;;;;;7.70;70.64;99208.48;1725838;80;21224;-56
2021/01/25 07:18:29;;;;;;;7.50;3.35;;;;;;;7.70;70.69;99196.71;1795781;78;21576;-57
2021/01/25 07:20:58;;;;;;;7.40;3.92;;;;;;;7.67;70.54;99188.30;1760442;79;21179;-56
2021/01/25 07:23:28;;;;;;;8.48;4.50;;;;;;;7.60;70.71;99194.05;1790834;79;21171;-55
2021/01/25 07:25:57;;;;;;;7.55;3.95;;;;;;;7.58;70.77;99187.28;1792549;79;21192;-56
2021/01/25 07:28:27;;;;;;;9.95;5.10;;;;;;;7.56;70.77;99188.72;1788776;79;21191;-56
2021/01/25 07:30:54;;;;;;;10.45;5.33;;;;;;;7.63;70.75;99192.48;1795909;79;21566;-57
2021/01/25 07:33:22;;;;;;;9.03;4.58;;;;;;;7.68;70.58;99182.08;1791059;77;21201;-57
2021/01/25 07:35:52;;;;;;;9.13;4.30;;;;;;;7.66;70.60;99176.97;1769183;79;21188;-58
2021/01/25 07:38:24;;;;;;;8.30;4.58;;;;;;;7.66;70.59;99178.77;1763953;79;21669;-60
2021/01/25 07:40:51;;;;;;;8.63;4.60;;;;;;;7.59;70.58;99170.13;1758708;79;21195;-58
2021/01/25 07:43:19;;;;;;;9.65;5.35;;;;;;;7.56;70.70;99174.32;1762683;79;21205;-58
2021/01/25 07:45:46;;;;;;;8.03;3.75;;;;;;;7.56;70.81;99178.25;1790245;79;21928;-58
2021/01/25 07:48:14;;;;;;;7.70;4.22;;;;;;;7.60;70.73;99170.49;1733963;78;21931;-57
2021/01/25 07:50:58;;;;;;;7.58;3.90;;;;;;;7.68;70.53;99170.30;1756940;79;21229;-58
2021/01/25 07:53:33;;;;;;;7.30;4.35;;;;;;;7.74;70.42;99172.39;1726570;80;22368;-58
2021/01/25 07:56:01;;;;;;;;;;;;;;;7.79;70.37;99176.25;1796074;79;21753;-58
2021/01/25 07:58:28;;;;;;;13.18;5.10;;;;;;;7.81;70.38;99183.97;1801717;78;21364;-59
2021/01/25 08:00:55;;;;;;;8.70;4.85;;;;;;;7.78;70.42;99186.40;1706858;82;21172;-59
2021/01/25 08:03:31;;;;;;;9.23;4.92;;;;;;;7.78;70.36;99173.30;1705565;82;21225;-59
2021/01/25 08:06:00;;;;;;;8.83;4.83;;;;;;;7.78;70.16;99169.38;1787220;78;21162;-62
2021/01/25 08:08:27;;;;;;;10.72;5.45;;;;;;;7.79;69.97;99171.50;1767423;79;21207;-58
2021/01/25 08:10:56;;;;;;;10.95;5.50;;;;;;;7.84;69.75;99168.48;1734513;81;21478;-58
2021/01/25 08:13:28;;;;;;;10.30;5.20;;;;;;;7.82;69.78;99155.53;1792961;79;21130;-57
2021/01/25 08:16:15;;;;;;;9.48;5.22;;;;;;;7.83;69.86;99165.51;1763795;79;21528;-58
2021/01/25 08:18:59;;;;;;;8.70;5.37;;;;;;;7.79;69.94;99165.77;1793354;78;21627;-58
2021/01/25 08:21:31;;;;;;;9.30;5.70;;;;;;;7.75;70.27;99158.31;1705092;80;21786;-57
2021/01/25 08:23:59;;;;;;;13.72;5.47;;;;;;;7.71;70.16;99159.07;1795599;79;21259;-57
2021/01/25 08:26:28;;;;;;;10.45;5.12;;;;;;;7.68;70.08;99155.90;1790432;78;21223;-56
2021/01/25 08:29:02;;;;;;;8.00;4.15;;;;;;;7.70;69.98;99169.67;1756208;79;21626;-56
2021/01/25 08:31:36;;;;;;;11.43;4.87;;;;;;;7.77;69.76;99168.20;1791807;78;21149;-58
2021/01/25 08:34:16;;;;;;;11.08;5.12;;;;;;;7.82;69.64;99163.37;1764790;79;21203;-56
2021/01/25 08:36:46;;;;;;;10.60;5.58;;;;;;;7.86;69.55;99163.45;1766819;79;21187;-57
2021/01/25 08:39:16;;;;;;;13.00;6.22;;;;;;;7.84;69.42;99151.47;1766941;79;21140;-56
2021/01/25 08:41:50;;;;;;;10.28;5.35;;;;;;;7.81;69.50;99152.05;1793128;77;21152;-56
2021/01/25 08:44:20;;;;;;;9.98;6.15;;;;;;;7.81;69.56;99142.08;1793316;79;21164;-58
2021/01/25 08:46:47;;;;;;;11.18;6.40;;;;;;;7.80;69.54;99140.41;1793314;77;21207;-56
2021/01/25 08:49:22;;;;;;;10.18;5.37;;;;;;;7.79;69.54;99134.34;1791369;78;21197;-57
2021/01/25 08:51:55;;;;;;;;;;;;;;;7.75;69.59;99130.82;1794307;78;21190;-56
2021/01/25 08:54:38;;;;;;;11.57;6.40;;;;;;;7.78;69.66;99126.63;1798864;77;20301;-56
2021/01/25 08:57:18;;;;;;;11.30;5.95;;;;;;;7.81;69.69;99127.17;1792867;77;21144;-57
2021/01/25 08:59:46;;;;;;;10.88;5.47;;;;;;;7.90;69.64;99120.32;1790672;78;21428;-57
2021/01/25 09:02:22;;;;;;;11.28;6.47;;;;;;;7.92;69.52;99114.45;1737398;80;22142;-57
2021/01/25 09:04:51;;;;;;;12.45;6.58;;;;;;;7.92;69.47;99120.19;1753316;80;21188;-56
2021/01/25 09:07:22;;;;;;;13.43;6.78;;;;;;;7.86;69.75;99118.10;1702902;82;21654;-58
2021/01/25 09:09:50;;;;;;;9.95;5.20;;;;;;;7.85;69.89;99114.67;1737548;82;21118;-56
2021/01/25 09:12:19;;;;;;;11.03;6.80;;;;;;;7.85;69.84;99106.81;1774073;79;21211;-57
2021/01/25 09:14:46;;;;;;;10.15;6.92;;;;;;;7.87;69.70;99104.88;1790419;78;21203;-57
2021/01/25 09:17:14;;;;;;;12.93;6.12;;;;;;;7.88;69.67;99109.13;1789691;77;21177;-58
2021/01/25 09:19:42;;;;;;;10.53;6.22;;;;;;;7.97;69.57;99103.09;1796225;78;21173;-57
2021/01/25 09:22:11;;;;;;;11.33;6.80;;;;;;;8.11;69.30;99104.95;1790111;78;21101;-57
2021/01/25 09:24:39;;;;;;;13.65;6.37;;;;;;;8.21;69.02;99104.45;1794752;77;21161;-57
2021/01/25 09:27:08;;;;;;;12.82;7.35;;;;;;;8.23;68.93;99099.08;1791939;77;21446;-57
2021/01/25 09:29:36;;;;;;;14.33;7.35;;;;;;;8.17;69.05;99091.30;1790243;79;21165;-57
2021/01/25 09:32:05;;;;;;;13.50;7.75;;;;;;;8.11;69.15;99094.47;1733163;80;21653;-58
2021/01/25 09:34:34;;;;;;;12.78;7.95;;;;;;;8.05;69.44;99098.94;1791907;79;21796;-57
2021/01/25 09:37:03;;;;;;;12.05;7.42;;;;;;;8.03;69.50;99100.88;1791534;78;21206;-57
2021/01/25 09:39:30;;;;;;;13.15;7.40;;;;;;;7.99;69.68;99102.45;1794591;79;21390;-57
2021/01/25 09:42:00;;;;;;;13.50;7.03;;;;;;;7.95;69.74;99089.30;1782828;79;21164;-56
2021/01/25 09:44:27;;;;;;;13.22;7.37;;;;;;;7.94;69.81;99087.64;1788872;79;21133;-57
2021/01/25 09:46:56;;;;;;;12.55;6.45;;;;;;;8.00;69.70;99086.25;1723166;79;21204;-57
2021/01/25 09:49:24;;;;;;;11.63;6.65;;;;;;;8.08;69.71;99078.53;1705579;82;21247;-57
2021/01/25 09:51:51;;;;;;;14.10;7.35;;;;;;;8.17;69.60;99070.34;1731508;80;21230;-58
2021/01/25 09:54:19;;;;;;;11.68;6.17;;;;;;;8.21;69.56;99066.95;1775977;79;21185;-58
2021/01/25 09:56:47;;;;;;;11.88;6.45;;;;;;;8.23;69.46;99062.39;1797081;78;21141;-58
2021/01/25 09:59:15;;;;;;;10.35;5.87;;;;;;;8.24;69.42;99058.33;1781302;79;21260;-57
2021/01/25 10:01:43;;;;;;;10.23;6.45;;;;;;;8.26;69.45;99050.33;1751626;81;21200;-56
2021/01/25 10:04:10;;;;;;;13.62;6.70;;;;;;;8.29;69.31;99040.87;1782273;79;21190;-56
2021/01/25 10:06:38;;;;;;;12.35;5.90;;;;;;;8.30;69.18;99039.39;1787370;79;21654;-56
2021/01/25 10:09:05;;;;;;;9.80;5.37;;;;;;;8.36;68.92;99036.22;1758909;79;21247;-56
2021/01/25 10:11:33;;;;;;;8.55;4.53;;;;;;;8.42;68.69;99036.62;1786149;78;21148;-57
2021/01/25 10:14:00;;;;;;;9.93;5.70;;;;;;;8.46;68.56;99024.93;1785906;78;21130;-55
2021/01/25 10:16:28;;;;;;;11.97;5.72;;;;;;;8.48;68.52;99013.81;1803685;78;21209;-55
2021/01/25 10:18:55;;;;;;;10.05;5.42;;;;;;;8.48;68.58;99012.50;1724720;82;21142;-55
2021/01/25 10:21:23;;;;;;;9.48;5.20;;;;;;;8.44;68.60;98995.39;1789816;79;21166;-57
2021/01/25 10:23:50;;;;;;;8.75;5.03;;;;;;;8.39;68.71;98991.88;1746045;79;21178;-55
2021/01/25 10:26:20;;;;;;;9.33;4.62;;;;;;;8.32;68.77;98992.08;1778477;79;21173;-55
2021/01/25 10:28:49;;;;;;;11.28;4.60;;;;;;;8.24;68.99;98978.86;1762349;79;21217;-55
2021/01/25 10:31:17;;;;;;;8.30;4.47;;;;;;;8.13;69.25;98970.20;1778480;78;21202;-55
2021/01/25 10:33:45;;;;;;;8.38;4.22;;;;;;;8.10;69.44;98980.14;1777344;79;21647;-55
2021/01/25 10:36:13;;;;;;;11.12;4.25;;;;;;;8.14;69.41;98971.05;1784952;79;21220;-55
2021/01/25 10:38:40;;;;;;;8.43;4.22;;;;;;;8.19;69.43;98969.65;1765974;80;21194;-55
2021/01/25 10:41:08;;;;;;;12.58;4.55;;;;;;;8.23;69.49;98970.19;1711959;82;22642;-55
2021/01/25 10:43:36;;;;;;;8.60;4.00;;;;;;;8.25;69.55;98955.63;1778228;79;21204;-57
2021/01/25 10:46:03;;;;;;;11.05;4.47;;;;;;;8.22;69.71;98962.46;1701388;82;21371;-56
2021/01/25 10:48:32;;;;;;;8.08;3.83;;;;;;;8.18;69.86;98947.52;1767883;79;21187;-55
2021/01/25 10:51:00;;;;;;;9.65;5.15;;;;;;;8.14;70.00;98944.85;1726511;80;21185;-56
2021/01/25 10:53:27;;;;;;;8.50;3.95;;;;;;;8.12;70.17;98938.91;1790971;78;21809;-55
2021/01/25 10:55:54;;;;;;;7.87;4.05;;;;;;;8.19;70.10;98932.14;1774984;79;21143;-55
2021/01/25 10:58:22;;;;;;;9.00;3.87;;;;;;;8.32;69.85;98932.66;1799518;79;21141;-55
2021/01/25 11:00:51;;;;;;;8.03;4.35;;;;;;;8.40;69.65;98920.12;1801736;78;21152;-56
2021/01/25 11:03:18;;;;;;;9.23;4.65;;;;;;;8.46;69.58;98930.06;1792781;78;21129;-55
2021/01/25 11:05:46;;;;;;;10.70;4.85;;;;;;;8.45;69.65;98922.34;1751969;79;21217;-55
2021/01/25 11:08:14;;;;;;;9.80;5.08;;;;;;;8.46;69.70;98920.08;1792887;78;21202;-57
2021/01/25 11:10:41;;;;;;;8.03;4.53;;;;;;;8.51;69.67;98913.41;1768770;79;21244;-55
2021/01/25 11:13:09;;;;;;;9.78;4.37;;;;;;;8.56;69.56;98897.25;1795698;79;21141;-54
2021/01/25 11:15:36;;;;;;;8.08;4.60;;;;;;;8.58;69.48;98888.75;1726956;80;21165;-56
2021/01/25 11:18:04;;;;;;;6.30;3.52;;;;;;;8.57;69.48;98888.89;1797126;78;21835;-57
2021/01/25 11:20:32;;;;;;;7.62;3.70;;;;;;;8.63;69.46;98894.38;1793500;78;21125;-56
2021/01/25 11:22:59;;;;;;;7.53;3.80;;;;;;;8.70;69.19;98882.32;1725153;80;21200;-55
2021/01/25 11:25:27;;;;;;;9.05;4.55;;;;;;;8.78;69.07;98871.10;1700441;82;21177;-55
2021/01/25 11:27:55;;;;;;;10.68;4.08;;;;;;;8.82;68.98;98878.19;1762715;79;21200;-55
2021/01/25 11:30:24;;;;;;;10.90;4.80;;;;;;;8.79;68.99;98869.30;1764401;79;21136;-54
2021/01/25 11:32:52;;;;;;;9.35;4.08;;;;;;;8.75;69.07;98863.52;1790508;78;21224;-55
2021/01/25 11:35:19;;;;;;;9.50;4.45;;;;;;;8.71;69.17;98863.50;1757317;80;21216;-55
2021/01/25 11:37:46;;;;;;;11.35;4.80;;;;;;;8.68;69.31;98861.16;1765517;79;22645;-55
2021/01/25 11:40:15;;;;;;;9.60;4.70;;;;;;;8.68;69.33;98858.05;1799561;79;21686;-56
2021/01/25 11:42:43;;;;;;;8.50;4.05;;;;;;;8.65;69.39;98850.47;1800739;78;21202;-54
2021/01/25 11:45:12;;;;;;;10.32;4.95;;;;;;;8.68;69.44;98847.56;1760996;80;21247;-54
2021/01/25 11:47:40;;;;;;;8.20;4.30;;;;;;;8.76;69.23;98852.54;1789531;78;21207;-56
2021/01/25 11:52:43;;;;;;;9.40;4.37;;;;;;;8.81;69.26;98836.72;1797326;79;23497;-56
2021/01/25 11:55:12;;;;;;;11.20;4.83;;;;;;;8.72;69.48;98829.73;1785837;80;21172;-56